Time;durP1;ratioP1;P1;durP2;ratioP2;P2;SDS_P1;SDS_P2;PMS_P1;PMS_P2;Temp;Humidity;BMP_temperature;BMP_pressure;BME280_temperature;BME280_humidity;BME280_pressure;Samples;Min_cycle;Max_cycle;Signal;HPM_P1;HPM_P2
2023/11/28 00:00:00;;;;;;;;;;;;;;;25.61;40.59;92210.13;4960159;28;8959;-56
2023/11/28 00:03:02;;;;;;;;;;;;;;;25.62;41.14;92222.56;4960213;28;7002;-55
2023/11/28 00:05:30;;;;;;;;;;;;;;;25.59;40.35;92209.97;4933901;29;7362;-55
2023/11/28 00:08:28;;;;;;;;;;;;;;;25.61;40.39;92215.63;4932350;29;7449;-56
2023/11/28 00:11:06;;;;;;;;;;;;;;;25.59;40.29;92207.22;4928880;29;7006;-56
2023/11/28 00:13:41;;;;;;;;;;;;;;;25.58;41.01;92208.47;4917333;29;6968;-56
2023/11/28 00:16:20;;;;;;;;;;;;;;;25.59;40.79;92192.69;4920599;29;9484;-55
2023/11/28 00:18:46;;;;;;;;;;;;;;;25.58;40.97;92194.72;4933109;29;7403;-55
2023/11/28 00:21:17;;;;;;;;;;;;;;;25.57;40.72;92185.03;4932798;29;7070;-55
2023/11/28 00:23:54;;;;;;;;;;;;;;;25.58;41.19;92183.72;4932647;29;8191;-55
2023/11/28 00:26:22;;;;;;;;;;;;;;;25.55;40.39;92178.63;4952350;28;7323;-56
2023/11/28 00:29:17;;;;;;;;;;;;;;;25.56;40.30;92183.53;4952684;28;9227;-55
2023/11/28 00:32:03;;;;;;;;;;;;;;;25.56;41.01;92178.03;4873608;29;7060;-55
2023/11/28 00:34:38;;;;;;;;;;;;;;;25.57;40.48;92171.25;4893999;29;7242;-55
2023/11/28 00:37:15;;;;;;;;;;;;;;;25.57;40.64;92187.78;4914918;29;7077;-55
2023/11/28 00:39:42;;;;;;;;;;;;;;;25.56;41.18;92202.06;4908423;29;7308;-55
2023/11/28 00:42:08;;;;;;;;;;;;;;;25.56;40.40;92196.56;4976128;28;6999;-56
2023/11/28 00:44:42;;;;;;;;;;;;;;;25.57;40.40;92193.28;4989003;28;7323;-55
2023/11/28 00:47:43;;;;;;;;;;;;;;;25.57;41.29;92207.03;4965934;28;9463;-55
2023/11/28 00:50:10;;;;;;;;;;;;;;;25.56;41.09;92197.31;4972876;28;7065;-55
2023/11/28 00:52:37;;;;;;;;;;;;;;;25.55;40.42;92195.88;4966731;28;9100;-55
2023/11/28 00:55:33;;;;;;;;;;;;;;;25.56;40.95;92191.81;4988581;28;6993;-56
2023/11/28 00:58:09;;;;;;;;;;;;;;;25.55;40.70;92195.88;4973540;28;7302;-55
2023/11/28 01:00:40;;;;;;;;;;;;;;;25.53;40.28;92187.44;4981095;28;7196;-55
2023/11/28 01:03:19;;;;;;;;;;;;;;;25.54;41.24;92177.13;4981099;28;6998;-63
2023/11/28 01:05:56;;;;;;;;;;;;;;;25.55;40.48;92190.34;4984957;28;7239;-63
2023/11/28 01:08:24;;;;;;;;;;;;;;;25.56;40.17;92194.56;5040837;28;7196;-63
2023/11/28 01:10:53;;;;;;;;;;;;;;;25.57;41.24;92187.78;5061428;28;9492;-63
2023/11/28 01:13:22;;;;;;;;;;;;;;;25.58;41.06;92183.00;5076631;28;9524;-63
2023/11/28 01:15:49;;;;;;;;;;;;;;;25.58;40.16;92191.97;5067468;28;9284;-63
2023/11/28 01:18:15;;;;;;;;;;;;;;;25.60;41.17;92186.63;5063814;28;7051;-64
2023/11/28 01:20:46;;;;;;;;;;;;;;;25.60;41.02;92183.16;5050395;28;7108;-64
2023/11/28 01:23:21;;;;;;;;;;;;;;;25.61;40.47;92192.88;5061552;28;7709;-63
2023/11/28 01:26:17;;;;;;;;;;;;;;;25.60;40.46;92188.66;5067947;28;6978;-63
2023/11/28 01:28:58;;;;;;;;;;;;;;;25.58;40.62;92189.22;5069810;28;8764;-63
2023/11/28 01:31:29;;;;;;;;;;;;;;;25.58;40.55;92191.25;5074556;28;6991;-64
2023/11/28 01:34:13;;;;;;;;;;;;;;;25.56;40.82;92191.06;5058469;28;8665;-63
2023/11/28 01:36:40;;;;;;;;;;;;;;;25.55;41.05;92182.09;5054862;28;6974;-63
2023/11/28 01:39:53;;;;;;;;;;;;;;;25.57;40.63;92190.53;5057243;28;7263;-63
2023/11/28 01:42:29;;;;;;;;;;;;;;;25.57;40.92;92181.53;5016285;28;8785;-64
2023/11/28 01:45:05;;;;;;;;;;;;;;;25.56;40.56;92178.03;5020896;28;7591;-64
2023/11/28 01:47:33;;;;;;;;;;;;;;;25.54;40.57;92166.13;5013462;28;7255;-64
2023/11/28 01:50:02;;;;;;;;;;;;;;;25.56;40.63;92171.81;5026969;28;8419;-64
2023/11/28 01:52:32;;;;;;;;;;;;;;;25.57;40.77;92171.25;5024637;28;9053;-64
2023/11/28 01:55:18;;;;;;;;;;;;;;;25.57;41.12;92171.25;5026972;28;7333;-64
2023/11/28 01:57:55;;;;;;;;;;;;;;;25.57;40.79;92163.00;5014326;28;7272;-63
2023/11/28 02:00:33;;;;;;;;;;;;;;;25.57;41.12;92157.50;5018288;28;7555;-64
2023/11/28 02:03:33;;;;;;;;;;;;;;;25.58;40.25;92160.97;5023110;28;7241;-64
2023/11/28 02:06:38;;;;;;;;;;;;;;;25.57;40.41;92162.25;4954848;28;7366;-64
2023/11/28 02:09:22;;;;;;;;;;;;;;;25.56;40.38;92158.78;4961991;28;7174;-63
2023/11/28 02:12:12;;;;;;;;;;;;;;;25.58;40.45;92152.72;4945185;28;8813;-60
2023/11/28 02:14:50;;;;;;;;;;;;;;;25.56;40.66;92156.03;4962363;28;9917;-64
2023/11/28 02:17:26;;;;;;;;;;;;;;;25.55;40.46;92140.81;4945265;28;7269;-63
2023/11/28 02:19:57;;;;;;;;;;;;;;;25.56;40.89;92136.75;4972959;28;7297;-63
2023/11/28 02:22:26;;;;;;;;;;;;;;;25.55;41.07;92142.84;4988042;28;8859;-63
2023/11/28 02:25:45;;;;;;;;;;;;;;;25.56;40.80;92134.00;4983062;28;7338;-64
2023/11/28 02:28:19;;;;;;;;;;;;;;;25.56;40.47;92136.75;4958693;28;7249;-63
2023/11/28 02:31:00;;;;;;;;;;;;;;;25.58;40.52;92128.66;4939874;28;6856;-63
2023/11/28 02:33:48;;;;;;;;;;;;;;;25.57;41.10;92131.97;4945067;28;7301;-63
2023/11/28 02:36:24;;;;;;;;;;;;;;;25.56;40.87;92125.75;4947809;28;7240;-63
2023/11/28 02:38:51;;;;;;;;;;;;;;;25.56;40.24;92128.50;4955912;28;7326;-63
2023/11/28 02:41:18;;;;;;;;;;;;;;;25.54;41.20;92113.84;4950976;28;7628;-63
2023/11/28 02:43:44;;;;;;;;;;;;;;;25.55;40.35;92107.03;4982296;28;8506;-63
2023/11/28 02:46:10;;;;;;;;;;;;;;;25.53;40.56;92091.09;4982233;28;6949;-63
2023/11/28 02:48:37;;;;;;;;;;;;;;;25.54;40.94;92095.31;4993314;28;9076;-63
2023/11/28 02:51:04;;;;;;;;;;;;;;;25.56;41.34;92092.72;4975248;28;7329;-63
2023/11/28 02:54:09;;;;;;;;;;;;;;;25.57;41.08;92093.44;4998645;28;7516;-63
2023/11/28 02:56:48;;;;;;;;;;;;;;;25.55;40.76;92088.50;4999363;28;8920;-63
2023/11/28 02:59:14;;;;;;;;;;;;;;;25.52;40.90;92084.13;5048366;28;7131;-63
2023/11/28 03:02:09;;;;;;;;;;;;;;;25.56;40.88;92086.47;5065421;28;7265;-64
2023/11/28 03:05:20;;;;;;;;;;;;;;;25.55;40.97;92085.75;5031816;28;9133;-64
2023/11/28 03:07:51;;;;;;;;;;;;;;;25.55;40.32;92083.00;5022792;28;7271;-64
2023/11/28 03:10:37;;;;;;;;;;;;;;;25.55;40.94;92080.25;5024317;28;7357;-64
2023/11/28 03:13:13;;;;;;;;;;;;;;;25.54;40.98;92080.81;5032870;28;7274;-64
2023/11/28 03:15:48;;;;;;;;;;;;;;;25.55;40.89;92080.25;5025996;28;7458;-64
2023/11/28 03:18:27;;;;;;;;;;;;;;;25.56;40.98;92089.22;5026150;28;7274;-64
2023/11/28 03:21:00;;;;;;;;;;;;;;;25.52;40.56;92077.88;5020478;28;9206;-64
2023/11/28 03:23:41;;;;;;;;;;;;;;;25.54;40.90;92075.28;5015240;28;7234;-62
2023/11/28 03:26:39;;;;;;;;;;;;;;;25.54;40.83;92067.78;5017215;28;8796;-61
2023/11/28 03:29:24;;;;;;;;;;;;;;;25.53;40.52;92069.09;4954163;28;9055;-61
2023/11/28 03:31:51;;;;;;;;;;;;;;;25.53;40.76;92069.09;4970399;28;8757;-61
2023/11/28 03:34:33;;;;;;;;;;;;;;;25.53;40.55;92069.09;4963379;28;7445;-61
2023/11/28 03:37:09;;;;;;;;;;;;;;;25.49;41.01;92054.97;4965780;28;6977;-61
2023/11/28 03:39:48;;;;;;;;;;;;;;;25.43;40.70;92052.47;4971031;28;7227;-62
2023/11/28 03:42:28;;;;;;;;;;;;;;;25.51;40.40;92057.91;4998825;28;7268;-62
2023/11/28 03:45:41;;;;;;;;;;;;;;;25.51;40.22;92046.91;4990101;28;8431;-61
2023/11/28 03:48:42;;;;;;;;;;;;;;;25.51;40.14;92051.69;5007900;28;7391;-61
2023/11/28 03:51:24;;;;;;;;;;;;;;;25.50;40.03;92045.44;4998053;28;7421;-61
2023/11/28 03:54:04;;;;;;;;;;;;;;;25.48;41.01;92056.28;4994462;28;9102;-61
2023/11/28 03:56:31;;;;;;;;;;;;;;;25.49;40.37;92049.47;5003545;28;8716;-61
2023/11/28 03:58:57;;;;;;;;;;;;;;;25.48;40.84;92047.28;5008462;28;7234;-61
2023/11/28 04:01:23;;;;;;;;;;;;;;;25.49;40.79;92060.47;5010069;28;8717;-61
2023/11/28 04:04:02;;;;;;;;;;;;;;;25.52;40.60;92061.38;5007770;28;7215;-61
2023/11/28 04:06:30;;;;;;;;;;;;;;;25.52;40.07;92061.38;5064475;28;6993;-61
2023/11/28 04:09:05;;;;;;;;;;;;;;;25.50;40.75;92059.19;5067420;28;7016;-61
2023/11/28 04:12:01;;;;;;;;;;;;;;;25.53;40.02;92060.81;5068460;28;8931;-61
2023/11/28 04:14:38;;;;;;;;;;;;;;;25.52;40.66;92061.38;5011407;28;8576;-61
2023/11/28 04:17:32;;;;;;;;;;;;;;;25.52;40.96;92066.88;5018760;28;9106;-61
2023/11/28 04:20:26;;;;;;;;;;;;;;;25.53;40.76;92071.84;5017215;28;9027;-61
2023/11/28 04:22:53;;;;;;;;;;;;;;;25.53;40.20;92060.81;5005474;28;8957;-61
2023/11/28 04:25:23;;;;;;;;;;;;;;;25.51;40.04;92065.44;5004104;28;7259;-61
2023/11/28 04:28:09;;;;;;;;;;;;;;;25.51;40.36;92063.41;5011129;28;7219;-61
2023/11/28 04:31:20;;;;;;;;;;;;;;;25.52;40.72;92075.13;5016510;28;7633;-61
2023/11/28 04:33:56;;;;;;;;;;;;;;;25.51;40.09;92068.19;4951296;29;7072;-62
2023/11/28 04:36:34;;;;;;;;;;;;;;;25.53;40.80;92071.84;4953125;29;9030;-62
2023/11/28 04:39:05;;;;;;;;;;;;;;;25.52;40.00;92069.63;4938962;28;9057;-62
2023/11/28 04:41:43;;;;;;;;;;;;;;;25.53;40.35;92069.09;4952866;28;7241;-62
2023/11/28 04:44:20;;;;;;;;;;;;;;;25.51;40.62;92062.69;4955904;28;7113;-61
2023/11/28 04:47:28;;;;;;;;;;;;;;;25.53;40.08;92066.34;4958427;28;9484;-61
2023/11/28 04:49:56;;;;;;;;;;;;;;;25.52;40.81;92066.88;4956479;28;7644;-61
2023/11/28 04:52:22;;;;;;;;;;;;;;;25.51;40.92;92066.16;4977098;28;9377;-62
2023/11/28 04:55:01;;;;;;;;;;;;;;;25.54;39.86;92065.03;4995250;28;7193;-62
2023/11/28 04:57:49;;;;;;;;;;;;;;;25.52;40.71;92064.88;4979332;28;9117;-62
2023/11/28 05:00:25;;;;;;;;;;;;;;;25.52;40.66;92073.13;4985254;28;7534;-61
2023/11/28 05:03:05;;;;;;;;;;;;;;;25.53;40.64;92082.13;4993133;28;6971;-62
2023/11/28 05:09:29;;;;;;;;;;;;;;;25.51;40.05;92088.19;5074807;28;7266;-61
2023/11/28 05:12:21;;;;;;;;;;;;;;;25.51;40.78;92090.22;5022961;28;6970;-62
2023/11/28 05:15:04;;;;;;;;;;;;;;;25.49;40.08;92106.56;5009867;28;9062;-61
2023/11/28 05:17:32;;;;;;;;;;;;;;;25.50;40.49;92108.75;5005475;28;9151;-62
2023/11/28 05:20:49;;;;;;;;;;;;;;;25.49;41.00;92104.50;5022624;28;7111;-61
2023/11/28 05:23:49;;;;;;;;;;;;;;;25.50;39.89;92113.50;5020377;28;7231;-61
2023/11/28 05:26:28;;;;;;;;;;;;;;;25.49;39.93;92110.03;4999803;28;7322;-61
2023/11/28 05:29:26;;;;;;;;;;;;;;;25.48;40.77;92116.09;4995843;28;8477;-61
2023/11/28 05:32:26;;;;;;;;;;;;;;;25.50;39.95;92119.00;4911256;29;7317;-61
2023/11/28 05:35:30;;;;;;;;;;;;;;;25.50;40.35;92125.25;4903432;29;7032;-61
2023/11/28 05:38:26;;;;;;;;;;;;;;;25.51;39.98;92132.22;4833496;29;7878;-62
2023/11/28 05:41:30;;;;;;;;;;;;;;;25.50;40.49;92138.28;5090686;27;7221;-60
2023/11/28 05:43:59;;;;;;;;;;;;;;;25.50;39.93;92152.78;5085943;28;8280;-60
2023/11/28 05:47:13;;;;;;;;;;;;;;;25.49;40.65;92143.03;5070339;28;7234;-59
2023/11/28 05:49:55;;;;;;;;;;;;;;;25.48;40.14;92155.38;5027818;28;7227;-59
2023/11/28 05:53:08;;;;;;;;;;;;;;;25.53;42.98;92162.66;5011434;28;7224;-60
2023/11/28 05:56:08;;;;;;;;;;;;;;;25.57;41.35;92157.50;5007805;28;9863;-60
2023/11/28 05:58:48;;;;;;;;;;;;;;;25.56;42.35;92163.53;4971715;28;6993;-60
2023/11/28 06:01:26;;;;;;;;;;;;;;;25.61;41.34;92166.06;4988143;28;7261;-60
2023/11/28 06:04:29;;;;;;;;;;;;;;;25.65;41.31;92165.66;4986271;28;8680;-60
2023/11/28 06:07:30;;;;;;;;;;;;;;;25.68;41.42;92181.06;4985281;28;7041;-60
2023/11/28 06:10:14;;;;;;;;;;;;;;;25.69;40.47;92171.50;4924645;29;7150;-60
2023/11/28 06:12:56;;;;;;;;;;;;;;;25.68;41.12;92198.31;4926640;29;9393;-60
2023/11/28 06:15:47;;;;;;;;;;;;;;;25.76;41.10;92176.22;4929985;29;9086;-60
2023/11/28 06:18:30;;;;;;;;;;;;;;;25.69;40.75;92194.25;4922339;29;8915;-60
2023/11/28 06:21:07;;;;;;;;;;;;;;;25.73;41.00;92188.38;4907584;29;7344;-59
2023/11/28 06:23:52;;;;;;;;;;;;;;;25.74;40.69;92190.56;4925794;29;7007;-60
2023/11/28 06:26:44;;;;;;;;;;;;;;;25.80;40.78;92184.81;4947138;28;9310;-60
2023/11/28 06:29:10;;;;;;;;;;;;;;;25.82;40.90;92185.69;4986787;28;7222;-60
2023/11/28 06:31:52;;;;;;;;;;;;;;;25.80;40.31;92190.31;4972244;28;7387;-60
2023/11/28 06:34:54;;;;;;;;;;;;;;;25.86;41.06;92185.31;4995975;28;7004;-60
2023/11/28 06:37:28;;;;;;;;;;;;;;;25.83;40.14;92186.44;4963445;28;8997;-60
2023/11/28 06:40:06;;;;;;;;;;;;;;;25.85;40.79;92195.59;4952614;28;7347;-60
2023/11/28 06:42:33;;;;;;;;;;;;;;;25.87;40.34;92192.28;4957601;28;7276;-60
2023/11/28 06:45:08;;;;;;;;;;;;;;;25.87;39.82;92195.03;4986511;28;7259;-58
2023/11/28 06:47:48;;;;;;;;;;;;;;;25.79;39.80;92208.88;4990901;28;7282;-59
2023/11/28 06:50:14;;;;;;;;;;;;;;;25.81;40.38;92211.78;4988664;28;7235;-59
2023/11/28 06:52:54;;;;;;;;;;;;;;;25.80;39.77;92210.31;5002060;28;7005;-59
2023/11/28 06:56:04;;;;;;;;;;;;;;;25.79;39.43;92211.63;4974987;28;7132;-59
2023/11/28 06:59:00;;;;;;;;;;;;;;;25.79;39.84;92217.13;4992559;28;8454;-60
2023/11/28 07:01:29;;;;;;;;;;;;;;;25.79;39.72;92224.66;4985799;28;7246;-59
2023/11/28 07:03:56;;;;;;;;;;;;;;;25.86;39.49;92221.13;4980356;28;7252;-59
2023/11/28 07:06:30;;;;;;;;;;;;;;;25.85;40.05;92225.91;4994650;28;6966;-59
2023/11/28 07:08:57;;;;;;;;;;;;;;;25.88;39.32;92227.50;4976568;28;9016;-60
2023/11/28 07:11:23;;;;;;;;;;;;;;;25.89;39.38;92239.25;5028510;28;7305;-59
2023/11/28 07:13:50;;;;;;;;;;;;;;;25.88;40.42;92229.53;5071838;28;7229;-59
2023/11/28 07:16:20;;;;;;;;;;;;;;;25.90;40.20;92224.91;5060768;28;8909;-59
2023/11/28 07:18:48;;;;;;;;;;;;;;;25.92;39.81;92238.13;5056581;28;7259;-59
2023/11/28 07:21:24;;;;;;;;;;;;;;;25.94;40.07;92239.03;5078660;28;7080;-59
2023/11/28 07:23:56;;;;;;;;;;;;;;;25.95;39.94;92248.75;5079315;28;7303;-59
2023/11/28 07:26:43;;;;;;;;;;;;;;;25.97;39.68;92253.69;5064225;28;6989;-59
2023/11/28 07:29:28;;;;;;;;;;;;;;;25.96;40.22;92261.25;5071001;28;9647;-60
2023/11/28 07:31:55;;;;;;;;;;;;;;;25.98;39.88;92260.66;5077243;28;9032;-59
2023/11/28 07:34:48;;;;;;;;;;;;;;;25.97;40.30;92272.97;5070527;28;7127;-59
2023/11/28 07:37:16;;;;;;;;;;;;;;;25.99;40.72;92275.91;4998898;28;9054;-59
2023/11/28 07:39:42;;;;;;;;;;;;;;;25.96;40.75;92283.28;5005140;28;7279;-59
2023/11/28 07:42:08;;;;;;;;;;;;;;;25.99;41.16;92264.91;4998694;28;7251;-59
2023/11/28 07:45:10;;;;;;;;;;;;;;;26.02;41.04;92275.50;4996035;28;7258;-59
2023/11/28 07:48:07;;;;;;;;;;;;;;;26.02;41.03;92281.00;5014816;28;7608;-60
2023/11/28 07:51:10;;;;;;;;;;;;;;;26.02;41.24;92285.78;5009416;28;9016;-60
2023/11/28 07:53:38;;;;;;;;;;;;;;;25.98;41.19;92279.94;4942663;28;8177;-60
2023/11/28 07:56:30;;;;;;;;;;;;;;;25.98;40.38;92282.69;4945760;28;8958;-60
2023/11/28 07:59:15;;;;;;;;;;;;;;;25.95;40.84;92287.31;4952017;28;7112;-60
2023/11/28 08:02:24;;;;;;;;;;;;;;;25.95;40.63;92286.56;4938596;28;6990;-59
2023/11/28 08:04:57;;;;;;;;;;;;;;;25.94;40.49;92291.38;4953511;28;8609;-54
2023/11/28 08:07:34;;;;;;;;;;;;;;;25.91;40.05;92291.75;4938720;28;7166;-54
2023/11/28 08:10:17;;;;;;;;;;;;;;;25.93;40.81;92287.16;4954117;28;7242;-54
2023/11/28 08:13:15;;;;;;;;;;;;;;;25.93;41.20;92298.16;4953767;28;8983;-55
2023/11/28 08:15:46;;;;;;;;;;;;;;;25.96;40.77;92307.31;4987692;28;7069;-55
2023/11/28 08:18:21;;;;;;;;;;;;;;;25.95;40.23;92297.59;4960130;28;9066;-54
2023/11/28 08:21:14;;;;;;;;;;;;;;;25.98;40.40;92307.50;4975362;28;7002;-55
2023/11/28 08:23:41;;;;;;;;;;;;;;;25.95;40.13;92314.84;4978450;28;7048;-55
2023/11/28 08:30:00;;;;;;;;;;;;;;;25.93;40.15;92313.94;5008306;28;7280;-54
2023/11/28 08:32:35;;;;;;;;;;;;;;;25.90;40.66;92313.03;5011805;28;8996;-55
2023/11/28 08:35:31;;;;;;;;;;;;;;;25.94;40.66;92315.41;4981631;28;8754;-55
2023/11/28 08:37:57;;;;;;;;;;;;;;;25.94;40.64;92323.69;5008378;28;7436;-54
2023/11/28 08:40:23;;;;;;;;;;;;;;;25.94;40.64;92329.19;5008149;28;7111;-54
2023/11/28 08:43:06;;;;;;;;;;;;;;;25.93;40.26;92333.97;5012787;28;6959;-54
2023/11/28 08:45:49;;;;;;;;;;;;;;;25.92;39.94;92326.28;5017875;28;7261;-54
2023/11/28 08:48:50;;;;;;;;;;;;;;;25.90;39.77;92337.84;5001314;28;8912;-54
2023/11/28 08:51:31;;;;;;;;;;;;;;;25.91;40.67;92336.56;4934374;28;7536;-54
2023/11/28 08:54:08;;;;;;;;;;;;;;;25.91;40.26;92336.56;4945660;28;7175;-55
2023/11/28 08:56:34;;;;;;;;;;;;;;;25.89;39.73;92344.66;4951752;28;7329;-54
2023/11/28 08:59:05;;;;;;;;;;;;;;;25.89;40.18;92352.91;4930175;28;8932;-54
2023/11/28 09:01:40;;;;;;;;;;;;;;;25.89;40.66;92355.66;4946091;28;9226;-54
2023/11/28 09:04:41;;;;;;;;;;;;;;;25.92;40.66;92359.31;4949416;28;7053;-55
2023/11/28 09:07:20;;;;;;;;;;;;;;;25.89;40.13;92366.69;5017803;28;7198;-54
2023/11/28 09:13:15;;;;;;;;;;;;;;;25.90;41.19;92383.94;5003107;28;7234;-59
2023/11/28 09:15:41;;;;;;;;;;;;;;;25.90;41.49;92389.47;5011407;28;9089;-59
2023/11/28 09:18:53;;;;;;;;;;;;;;;25.90;40.36;92392.91;5011353;28;7222;-60
2023/11/28 09:21:21;;;;;;;;;;;;;;;25.90;40.16;92408.72;5000222;28;7270;-60
2023/11/28 09:24:07;;;;;;;;;;;;;;;25.85;40.13;92406.91;4994222;28;7249;-60
2023/11/28 09:26:50;;;;;;;;;;;;;;;25.84;40.51;92419.94;5013976;28;7398;-60
2023/11/28 09:29:41;;;;;;;;;;;;;;;25.81;41.14;92426.59;5044747;28;7623;-59
2023/11/28 09:32:18;;;;;;;;;;;;;;;25.83;40.67;92437.03;5070914;28;7089;-59
2023/11/28 09:35:26;;;;;;;;;;;;;;;25.86;40.95;92433.88;5064908;28;7233;-59
2023/11/28 09:38:05;;;;;;;;;;;;;;;25.86;40.67;92436.66;5074290;28;7332;-58
2023/11/28 09:41:27;;;;;;;;;;;;;;;25.87;40.35;92451.88;5055547;28;7748;-58
2023/11/28 09:44:02;;;;;;;;;;;;;;;25.82;40.82;92477.63;5052260;28;7230;-59
2023/11/28 09:47:04;;;;;;;;;;;;;;;25.83;40.49;92470.81;5060194;28;7300;-59
2023/11/28 09:49:43;;;;;;;;;;;;;;;25.81;40.73;92489.94;5049569;28;7230;-60
2023/11/28 09:52:24;;;;;;;;;;;;;;;25.86;40.36;92500.00;5054495;28;7229;-59
2023/11/28 09:58:45;;;;;;;;;;;;;;;25.91;40.56;92506.59;4987217;28;7283;-59
2023/11/28 10:01:38;;;;;;;;;;;;;;;25.88;40.69;92513.22;4976613;28;7512;-59
2023/11/28 10:04:42;;;;;;;;;;;;;;;25.88;40.19;92522.19;4988596;28;8774;-59
2023/11/28 10:07:31;;;;;;;;;;;;;;;25.90;40.74;92522.38;4990811;28;7187;-59
2023/11/28 10:10:04;;;;;;;;;;;;;;;25.89;40.14;92526.44;4967281;28;7222;-60
2023/11/28 10:13:04;;;;;;;;;;;;;;;25.88;41.44;92516.69;4991261;28;7336;-59
2023/11/28 10:15:51;;;;;;;;;;;;;;;25.91;41.75;92528.63;4981531;28;7255;-59
2023/11/28 10:18:36;;;;;;;;;;;;;;;25.94;41.50;92536.53;4991198;28;7326;-59
2023/11/28 10:21:04;;;;;;;;;;;;;;;25.95;40.78;92532.47;4989867;28;7017;-59
2023/11/28 10:24:22;;;;;;;;;;;;;;;25.96;41.18;92542.19;4958739;28;8715;-59
2023/11/28 10:26:54;;;;;;;;;;;;;;;25.96;41.05;92552.47;4992250;28;7034;-59
2023/11/28 10:29:28;;;;;;;;;;;;;;;25.95;40.65;92548.25;5014194;28;9151;-59
2023/11/28 10:32:32;;;;;;;;;;;;;;;25.95;40.88;92539.97;5078901;28;7451;-60
2023/11/28 10:35:17;;;;;;;;;;;;;;;25.93;39.88;92543.31;5071583;28;6989;-60
2023/11/28 10:38:06;;;;;;;;;;;;;;;25.92;40.59;92557.63;5067075;28;8776;-60
2023/11/28 10:41:01;;;;;;;;;;;;;;;25.93;40.41;92559.09;5072053;28;8798;-59
2023/11/28 10:43:31;;;;;;;;;;;;;;;25.93;40.26;92565.34;5078471;28;8641;-59
2023/11/28 10:45:58;;;;;;;;;;;;;;;25.93;40.25;92579.09;5062013;28;8785;-59
2023/11/28 10:48:40;;;;;;;;;;;;;;;25.93;41.47;92578.38;5061377;28;7253;-59
2023/11/28 10:51:20;;;;;;;;;;;;;;;25.95;40.29;92579.28;5056267;28;7267;-59
2023/11/28 10:53:55;;;;;;;;;;;;;;;25.93;42.08;92586.63;5073521;28;7226;-59
2023/11/28 10:56:49;;;;;;;;;;;;;;;25.98;42.21;92593.97;5068028;28;7245;-59
2023/11/28 10:59:27;;;;;;;;;;;;;;;26.00;41.74;92592.13;5048870;28;7338;-59
2023/11/28 11:02:05;;;;;;;;;;;;;;;25.98;41.13;92597.47;5050788;28;8867;-59
2023/11/28 11:04:47;;;;;;;;;;;;;;;25.91;40.85;92597.47;5060539;28;7074;-59
2023/11/28 11:07:59;;;;;;;;;;;;;;;25.87;40.71;92614.41;5071765;28;7263;-59
2023/11/28 11:10:33;;;;;;;;;;;;;;;25.83;42.23;92603.03;5073484;28;7236;-59
2023/11/28 11:13:38;;;;;;;;;;;;;;;25.83;41.19;92614.03;5043071;28;9132;-59
2023/11/28 11:16:19;;;;;;;;;;;;;;;25.79;41.40;92613.69;5075643;28;7039;-59
2023/11/28 11:19:05;;;;;;;;;;;;;;;25.80;40.91;92615.13;5069523;28;8863;-59
2023/11/28 11:22:00;;;;;;;;;;;;;;;25.82;40.96;92634.59;5075368;28;7693;-59
2023/11/28 11:24:58;;;;;;;;;;;;;;;25.82;41.52;92645.59;5061775;28;6987;-60
2023/11/28 11:27:37;;;;;;;;;;;;;;;25.78;41.28;92652.78;5057215;28;6988;-60
2023/11/28 11:31:02;;;;;;;;;;;;;;;25.79;40.82;92657.75;5067010;28;7518;-60
2023/11/28 11:33:56;;;;;;;;;;;;;;;25.85;40.40;92652.03;5068748;28;8919;-63
2023/11/28 11:39:49;;;;;;;;;;;;;;;25.81;40.64;92651.69;5064326;28;9238;-63
2023/11/28 11:42:31;;;;;;;;;;;;;;;25.74;40.66;92669.69;5061384;28;6996;-63
2023/11/28 11:45:07;;;;;;;;;;;;;;;25.78;41.12;92670.03;5077606;28;9446;-62
2023/11/28 11:47:42;;;;;;;;;;;;;;;25.77;40.56;92673.34;5074461;28;7229;-63
2023/11/28 11:50:23;;;;;;;;;;;;;;;25.75;41.00;92678.69;5069578;28;7247;-64
2023/11/28 11:52:57;;;;;;;;;;;;;;;25.75;40.76;92681.44;5053828;28;7183;-63
2023/11/28 11:55:47;;;;;;;;;;;;;;;25.73;40.74;92687.47;5068584;28;7267;-63
2023/11/28 11:58:39;;;;;;;;;;;;;;;25.73;41.04;92695.03;5046908;28;9156;-64
2023/11/28 12:01:11;;;;;;;;;;;;;;;25.75;40.83;92701.44;5069450;28;7417;-62
2023/11/28 12:03:46;;;;;;;;;;;;;;;25.75;41.15;92697.97;5054798;28;9063;-63
2023/11/28 12:06:27;;;;;;;;;;;;;;;25.74;40.36;92694.47;5069456;28;7194;-62
2023/11/28 12:08:59;;;;;;;;;;;;;;;25.80;40.33;92694.25;5077517;28;7168;-62
2023/11/28 12:11:35;;;;;;;;;;;;;;;25.82;40.21;92703.44;5056379;28;6982;-62
2023/11/28 12:14:01;;;;;;;;;;;;;;;25.81;40.24;92707.50;5082621;28;8799;-62
2023/11/28 12:16:30;;;;;;;;;;;;;;;25.81;40.71;92710.25;5072363;28;7287;-62
2023/11/28 12:18:58;;;;;;;;;;;;;;;25.82;40.70;92710.97;5059628;28;6981;-63
2023/11/28 12:21:28;;;;;;;;;;;;;;;25.76;40.43;92711.16;5055587;28;7247;-62
2023/11/28 12:23:55;;;;;;;;;;;;;;;25.75;40.68;92728.97;5034781;28;8757;-63
2023/11/28 12:26:23;;;;;;;;;;;;;;;25.78;40.56;92710.59;5047700;28;9033;-62
2023/11/28 12:29:11;;;;;;;;;;;;;;;25.79;40.81;92718.34;5068888;28;8944;-63
2023/11/28 12:31:43;;;;;;;;;;;;;;;25.80;40.74;92717.03;5070101;28;7005;-63
2023/11/28 12:34:09;;;;;;;;;;;;;;;25.82;40.70;92727.50;5044445;28;8889;-63
2023/11/28 12:40:35;;;;;;;;;;;;;;;25.78;40.35;92719.59;4997063;28;7091;-63
2023/11/28 12:47:01;;;;;;;;;;;;;;;25.82;40.87;92746.78;4980295;28;6951;-63
2023/11/28 12:49:29;;;;;;;;;;;;;;;25.83;40.15;92746.25;4964995;28;7488;-63
2023/11/28 12:52:00;;;;;;;;;;;;;;;25.80;40.79;92755.59;4978324;28;7316;-61
2023/11/28 12:54:28;;;;;;;;;;;;;;;25.81;40.04;92753.56;4974951;28;7224;-62
2023/11/28 12:57:32;;;;;;;;;;;;;;;25.84;40.35;92766.97;4986345;28;6994;-62
2023/11/28 12:59:58;;;;;;;;;;;;;;;25.87;39.88;92771.38;4980715;28;7042;-63
2023/11/28 13:02:26;;;;;;;;;;;;;;;25.85;39.77;92768.47;4989645;28;9175;-63
2023/11/28 13:04:54;;;;;;;;;;;;;;;25.87;39.87;92776.91;4997574;28;6979;-61
2023/11/28 13:07:21;;;;;;;;;;;;;;;25.88;40.41;92785.91;4977182;28;7300;-62
2023/11/28 13:09:49;;;;;;;;;;;;;;;25.89;40.32;92796.38;4981689;28;7626;-62
2023/11/28 13:12:18;;;;;;;;;;;;;;;25.92;40.16;92794.53;4981214;28;7211;-62
2023/11/28 13:14:47;;;;;;;;;;;;;;;25.90;40.08;92797.81;5028191;28;9092;-62
2023/11/28 13:17:23;;;;;;;;;;;;;;;25.89;39.77;92801.88;5054461;28;9466;-62
2023/11/28 13:19:49;;;;;;;;;;;;;;;25.85;39.97;92804.25;5081450;28;7223;-62
2023/11/28 13:22:41;;;;;;;;;;;;;;;25.86;39.03;92805.00;5052283;28;8737;-62
2023/11/28 13:25:21;;;;;;;;;;;;;;;25.85;39.77;92811.78;5048193;28;7212;-62
2023/11/28 13:27:57;;;;;;;;;;;;;;;25.85;39.12;92820.78;5065891;28;6859;-62
2023/11/28 13:30:33;;;;;;;;;;;;;;;25.81;39.51;92823.19;5056459;28;7734;-62
2023/11/28 13:33:28;;;;;;;;;;;;;;;25.86;38.97;92827.75;5074691;28;7226;-62
2023/11/28 13:36:29;;;;;;;;;;;;;;;25.85;39.58;92839.31;5057019;28;7014;-62
2023/11/28 13:39:25;;;;;;;;;;;;;;;25.87;38.52;92851.28;4969337;28;7272;-62
2023/11/28 13:42:04;;;;;;;;;;;;;;;25.82;38.78;92849.41;4970873;28;9219;-62
2023/11/28 13:44:55;;;;;;;;;;;;;;;25.83;38.51;92859.16;4968135;28;7244;-63
2023/11/28 13:48:11;;;;;;;;;;;;;;;25.82;39.44;92862.44;4968638;28;7287;-61
2023/11/28 13:50:38;;;;;;;;;;;;;;;25.80;38.60;92867.78;4919773;29;9362;-62
2023/11/28 13:53:20;;;;;;;;;;;;;;;25.83;38.80;92867.44;4932862;29;7098;-54
2023/11/28 13:56:16;;;;;;;;;;;;;;;25.80;38.39;92876.03;4919170;29;9636;-54
2023/11/28 13:59:30;;;;;;;;;;;;;;;25.76;38.34;92879.16;4891644;29;6982;-54
2023/11/28 14:02:15;;;;;;;;;;;;;;;25.79;38.24;92886.34;4837798;29;7236;-54
2023/11/28 14:04:55;;;;;;;;;;;;;;;25.77;39.30;92888.91;4830619;29;7230;-55
2023/11/28 14:07:36;;;;;;;;;;;;;;;25.77;39.28;92894.41;4830986;29;9118;-55
2023/11/28 14:10:18;;;;;;;;;;;;;;;25.78;39.17;92906.88;4835460;29;7099;-55
2023/11/28 14:13:03;;;;;;;;;;;;;;;25.77;38.77;92902.69;4837442;29;6930;-55
2023/11/28 14:15:41;;;;;;;;;;;;;;;25.78;39.49;92903.38;4844823;29;7093;-55
2023/11/28 14:18:28;;;;;;;;;;;;;;;25.80;38.99;92909.81;4858124;29;9100;-54
2023/11/28 14:21:24;;;;;;;;;;;;;;;25.80;39.26;92918.09;4840313;29;7243;-55
2023/11/28 14:23:54;;;;;;;;;;;;;;;25.77;38.57;92915.69;4845641;29;7466;-55
2023/11/28 14:26:33;;;;;;;;;;;;;;;25.79;39.07;92927.66;4838663;29;7280;-55
2023/11/28 14:29:14;;;;;;;;;;;;;;;25.79;39.05;92924.16;4910841;29;7271;-55
2023/11/28 14:32:10;;;;;;;;;;;;;;;25.81;38.58;92927.84;4910282;29;7186;-55
2023/11/28 14:35:22;;;;;;;;;;;;;;;25.76;38.28;92937.00;4908163;29;7331;-55
2023/11/28 14:37:58;;;;;;;;;;;;;;;25.76;38.69;92942.50;4952165;28;9048;-55